createdAt,value
2018-11-05T00:00:53.651Z,11.27
2018-11-05T00:03:22.393Z,12.70
2018-11-05T00:05:51.937Z,12.60
2018-11-05T00:08:20.689Z,13.43
2018-11-05T00:10:49.548Z,11.83
2018-11-05T00:13:18.290Z,12.93
2018-11-05T00:15:47.037Z,13.50
2018-11-05T00:18:15.782Z,11.70
2018-11-05T00:20:44.621Z,12.97
2018-11-05T00:23:13.306Z,13.93
2018-11-05T00:25:42.036Z,14.03
2018-11-05T00:28:10.883Z,12.90
2018-11-05T00:30:39.639Z,13.40
2018-11-05T00:33:08.359Z,13.10
2018-11-05T00:35:37.061Z,13.60
2018-11-05T00:38:05.853Z,15.03
2018-11-05T00:40:34.578Z,14.43
2018-11-05T00:43:03.385Z,13.53
2018-11-05T00:45:32.189Z,12.90
2018-11-05T00:48:00.800Z,14.10
2018-11-05T00:50:29.505Z,14.33
2018-11-05T00:52:58.189Z,13.50
2018-11-05T00:55:26.873Z,14.57
2018-11-05T00:57:55.573Z,15.63
2018-11-05T01:00:24.273Z,13.03
2018-11-05T01:02:52.917Z,13.70
2018-11-05T01:05:21.594Z,16.60
2018-11-05T01:07:50.254Z,15.83
2018-11-05T01:10:18.919Z,15.47
2018-11-05T01:12:47.661Z,14.10
2018-11-05T01:15:17.633Z,15.57
2018-11-05T01:17:46.313Z,16.37
2018-11-05T01:20:15.846Z,15.70
2018-11-05T01:22:44.713Z,17.77
2018-11-05T01:25:13.418Z,17.90
2018-11-05T01:27:42.159Z,13.53
2018-11-05T01:30:12.423Z,16.70
2018-11-05T01:32:41.415Z,16.03
2018-11-05T01:35:11.754Z,17.37
2018-11-05T01:37:40.466Z,15.97
2018-11-05T01:40:11.497Z,15.30
2018-11-05T01:42:40.229Z,16.40
2018-11-05T01:45:10.668Z,16.40
2018-11-05T01:47:39.574Z,17.27
2018-11-05T01:50:09.909Z,16.77
2018-11-05T01:52:38.994Z,15.77
2018-11-05T01:55:08.615Z,16.20
2018-11-05T01:57:37.801Z,15.90
2018-11-05T02:00:09.757Z,16.53
2018-11-05T02:02:38.545Z,15.03
2018-11-05T02:05:08.067Z,16.47
2018-11-05T02:07:36.989Z,16.50
2018-11-05T02:10:08.368Z,15.10
2018-11-05T02:12:37.183Z,16.00
2018-11-05T02:15:06.649Z,16.20
2018-11-05T02:17:35.434Z,18.37
2018-11-05T02:20:04.839Z,17.17
2018-11-05T02:22:33.573Z,17.60
2018-11-05T02:25:02.323Z,16.43
2018-11-05T02:27:31.006Z,15.37
2018-11-05T02:29:59.749Z,15.53
2018-11-05T02:32:28.389Z,15.90
2018-11-05T02:34:57.057Z,17.40
2018-11-05T02:37:25.761Z,15.70
2018-11-05T02:39:54.549Z,16.07
2018-11-05T02:42:23.194Z,16.57
2018-11-05T02:44:51.863Z,15.10
2018-11-05T02:47:20.614Z,17.10
2018-11-05T02:49:49.449Z,17.13
2018-11-05T02:52:18.205Z,18.03
2018-11-05T02:54:46.874Z,16.47
2018-11-05T02:57:15.749Z,16.63
2018-11-05T02:59:44.489Z,17.33
2018-11-05T03:02:13.143Z,17.97
2018-11-05T03:04:41.842Z,16.50
2018-11-05T03:07:10.589Z,15.70
2018-11-05T03:09:39.326Z,15.70
2018-11-05T03:12:08.163Z,16.10
2018-11-05T03:14:37.033Z,17.93
2018-11-05T03:17:06.210Z,16.60
2018-11-05T03:19:34.871Z,16.70
2018-11-05T03:22:03.550Z,17.17
2018-11-05T03:24:32.303Z,17.30
2018-11-05T03:27:00.937Z,16.67
2018-11-05T03:29:29.650Z,15.30
2018-11-05T03:31:58.285Z,17.10
2018-11-05T03:34:27.039Z,19.10
2018-11-05T03:36:55.702Z,16.60
2018-11-05T03:39:24.416Z,15.97
2018-11-05T03:41:53.073Z,16.10
2018-11-05T03:44:21.771Z,17.20
2018-11-05T03:46:50.569Z,17.63
2018-11-05T03:49:19.245Z,16.60
2018-11-05T03:51:47.939Z,16.80
2018-11-05T03:54:16.728Z,15.13
2018-11-05T03:56:45.639Z,16.13
2018-11-05T03:59:14.309Z,19.30
2018-11-05T04:01:43.078Z,17.10
2018-11-05T04:04:11.794Z,17.67
2018-11-05T04:06:40.609Z,17.50
2018-11-05T04:09:10.814Z,17.10
2018-11-05T04:11:39.670Z,16.20
2018-11-05T04:14:08.711Z,16.13
2018-11-05T04:16:37.434Z,16.70
2018-11-05T04:19:06.554Z,17.30
2018-11-05T04:21:40.675Z,16.20
2018-11-05T04:24:10.104Z,15.90
2018-11-05T04:26:38.861Z,16.30
2018-11-05T04:29:08.065Z,17.07
2018-11-05T04:31:36.998Z,17.40
2018-11-05T04:34:05.954Z,17.40
2018-11-05T04:36:35.104Z,15.47
2018-11-05T04:39:05.092Z,15.53
2018-11-05T04:41:33.970Z,17.07
2018-11-05T04:44:02.726Z,15.60
2018-11-05T04:46:31.401Z,16.97
2018-11-05T04:49:00.067Z,17.50
2018-11-05T04:51:28.760Z,16.70
2018-11-05T04:53:57.470Z,15.53
2018-11-05T04:56:26.157Z,17.50
2018-11-05T04:58:54.781Z,15.73
2018-11-05T05:01:23.486Z,16.83
2018-11-05T05:03:52.282Z,14.97
2018-11-05T05:06:20.945Z,16.60
2018-11-05T05:08:49.583Z,17.17
2018-11-05T05:11:18.389Z,17.60
2018-11-05T05:13:47.049Z,18.30
2018-11-05T05:16:15.822Z,15.97
2018-11-05T05:18:44.454Z,16.33
2018-11-05T05:21:13.145Z,15.00
2018-11-05T05:23:41.883Z,15.47
2018-11-05T05:26:10.670Z,16.70
2018-11-05T05:28:39.405Z,17.07
2018-11-05T05:31:08.125Z,16.87
2018-11-05T05:33:37.171Z,17.77
2018-11-05T05:36:06.157Z,16.77
2018-11-05T05:38:34.978Z,16.47
2018-11-05T05:41:03.675Z,16.23
2018-11-05T05:43:32.522Z,17.80
2018-11-05T05:46:01.250Z,15.33
2018-11-05T05:48:30.036Z,16.17
2018-11-05T05:50:58.885Z,16.13
2018-11-05T05:53:27.718Z,16.50
2018-11-05T05:55:56.547Z,16.90
2018-11-05T05:58:25.187Z,15.63
2018-11-05T06:00:53.976Z,15.50
2018-11-05T06:03:22.858Z,17.00
2018-11-05T06:05:51.540Z,13.97
2018-11-05T06:08:20.180Z,15.50
2018-11-05T06:10:49.146Z,15.23
2018-11-05T06:13:17.994Z,16.83
2018-11-05T06:15:46.875Z,16.40
2018-11-05T06:18:15.725Z,15.83
2018-11-05T06:20:44.386Z,16.27
2018-11-05T06:23:13.136Z,14.83
2018-11-05T06:25:41.891Z,16.33
2018-11-05T06:28:10.667Z,14.50
2018-11-05T06:30:39.333Z,15.87
2018-11-05T06:33:08.080Z,15.77
2018-11-05T06:35:36.903Z,13.60
2018-11-05T06:38:06.045Z,13.70
2018-11-05T06:40:34.751Z,14.07
2018-11-05T06:43:03.453Z,12.37
2018-11-05T06:45:32.280Z,13.57
2018-11-05T06:48:01.117Z,14.57
2018-11-05T06:50:29.952Z,13.47
2018-11-05T06:52:58.686Z,13.27
2018-11-05T06:55:27.485Z,12.40
2018-11-05T06:57:56.152Z,12.90
2018-11-05T07:00:25.878Z,13.20
2018-11-05T07:02:54.650Z,12.23
2018-11-05T07:05:23.426Z,12.30
2018-11-05T07:07:52.172Z,11.57
2018-11-05T07:10:20.944Z,12.70
2018-11-05T07:12:49.593Z,11.40
2018-11-05T07:15:19.341Z,12.20
2018-11-05T07:17:49.199Z,11.43
2018-11-05T07:20:19.149Z,11.60
2018-11-05T07:22:48.751Z,10.90
2018-11-05T07:25:17.564Z,10.60
2018-11-05T07:27:46.356Z,11.50
2018-11-05T07:30:17.076Z,12.23
2018-11-05T07:32:46.184Z,10.17
2018-11-05T07:35:15.672Z,10.07
2018-11-05T07:37:44.421Z,9.50
2018-11-05T07:40:14.681Z,8.47
2018-11-05T07:42:43.481Z,9.70
2018-11-05T07:45:14.847Z,9.47
2018-11-05T07:47:44.620Z,8.90
2018-11-05T07:50:14.621Z,9.57
2018-11-05T07:52:43.257Z,9.17
2018-11-05T07:55:13.358Z,9.00
2018-11-05T07:57:43.374Z,9.33
2018-11-05T08:00:18.542Z,8.80
2018-11-05T08:02:48.212Z,8.40
2018-11-05T08:05:18.035Z,7.57
2018-11-05T08:07:47.237Z,8.00
2018-11-05T08:10:15.905Z,8.67
2018-11-05T08:12:44.658Z,9.03
2018-11-05T08:15:15.897Z,8.10
2018-11-05T08:17:46.830Z,8.10
2018-11-05T08:20:15.598Z,8.97
2018-11-05T08:22:44.246Z,8.33
2018-11-05T08:25:13.685Z,8.53
2018-11-05T08:27:42.665Z,9.23
2018-11-05T08:30:15.096Z,8.20
2018-11-05T08:32:43.766Z,7.80
2018-11-05T08:35:13.043Z,8.97
2018-11-05T08:37:42.429Z,9.67
2018-11-05T08:40:14.543Z,7.27
2018-11-05T08:42:43.763Z,8.70
2018-11-05T08:45:13.638Z,8.00
2018-11-05T08:47:42.810Z,7.10
2018-11-05T08:50:13.462Z,7.33
2018-11-05T08:52:42.099Z,7.70
2018-11-05T08:55:14.282Z,8.27
2018-11-05T08:57:43.401Z,7.63
2018-11-05T09:00:20.203Z,6.97
2018-11-05T09:02:49.218Z,7.80
2018-11-05T09:05:18.230Z,7.80
2018-11-05T09:07:47.871Z,7.50
2018-11-05T09:10:16.763Z,8.23
2018-11-05T09:12:45.333Z,7.97
2018-11-05T09:15:15.469Z,8.10
2018-11-05T09:17:45.076Z,7.63
2018-11-05T09:20:15.212Z,7.23
2018-11-05T09:22:43.973Z,6.33
2018-11-05T09:25:13.711Z,6.80
2018-11-05T09:27:42.484Z,7.53
2018-11-05T09:30:15.377Z,7.10
2018-11-05T09:32:45.178Z,7.10
2018-11-05T09:35:14.116Z,7.40
2018-11-05T09:37:42.997Z,6.63
2018-11-05T09:40:15.050Z,6.80
2018-11-05T09:42:44.604Z,6.80
2018-11-05T09:45:16.235Z,8.40
2018-11-05T09:47:45.617Z,6.07
2018-11-05T09:50:14.936Z,7.77
2018-11-05T09:52:43.625Z,6.97
2018-11-05T09:55:13.322Z,7.30
2018-11-05T09:57:42.493Z,7.37
2018-11-05T10:00:13.959Z,6.90
2018-11-05T10:02:48.116Z,7.20
2018-11-05T10:05:17.131Z,6.90
2018-11-05T10:07:46.154Z,6.13
2018-11-05T10:10:15.851Z,7.17
2018-11-05T10:12:44.868Z,7.53
2018-11-05T10:15:14.578Z,6.63
2018-11-05T10:17:43.489Z,6.83
2018-11-05T10:20:16.562Z,5.43
2018-11-05T10:26:42.171Z,6.90
2018-11-05T10:29:11.439Z,5.67
2018-11-05T10:31:40.620Z,7.37
2018-11-05T10:34:12.261Z,6.93
2018-11-05T10:36:44.578Z,7.03
2018-11-05T10:39:19.440Z,5.67
2018-11-05T10:41:52.062Z,6.30
2018-11-05T10:44:25.095Z,7.00
2018-11-05T10:46:55.932Z,6.87
2018-11-05T10:49:30.858Z,6.63
2018-11-05T10:52:05.630Z,6.47
2018-11-05T10:54:38.249Z,7.57
2018-11-05T10:57:07.513Z,8.50
2018-11-05T10:59:36.946Z,7.07
2018-11-05T11:02:16.061Z,6.10
2018-11-05T11:04:50.030Z,7.63
2018-11-05T11:07:19.194Z,7.87
2018-11-05T11:09:52.424Z,8.23
2018-11-05T11:12:22.564Z,5.70
2018-11-05T11:14:55.772Z,7.53
2018-11-05T11:17:26.413Z,6.70
2018-11-05T11:19:55.894Z,6.57
2018-11-05T11:22:27.889Z,7.97
2018-11-05T11:24:58.934Z,7.60
2018-11-05T11:27:28.187Z,6.97
2018-11-05T11:29:59.376Z,5.93
2018-11-05T11:32:32.232Z,6.70
2018-11-05T11:35:01.694Z,7.27
2018-11-05T11:37:35.044Z,6.77
2018-11-05T11:40:08.591Z,6.33
2018-11-05T11:42:42.327Z,7.17
2018-11-05T11:45:16.178Z,6.50
2018-11-05T11:47:50.339Z,6.57
2018-11-05T11:50:22.251Z,5.40
2018-11-05T11:52:53.252Z,6.87
2018-11-05T11:55:27.989Z,6.53
2018-11-05T11:58:01.444Z,6.43
2018-11-05T12:00:53.515Z,6.30
2018-11-05T12:03:23.229Z,6.17
2018-11-05T12:05:55.882Z,7.20
2018-11-05T12:11:07.281Z,6.43
2018-11-05T12:13:36.362Z,6.90
2018-11-05T12:16:05.584Z,6.03
2018-11-05T12:18:34.494Z,5.43
2018-11-05T12:21:03.733Z,6.30
2018-11-05T12:23:32.580Z,7.00
2018-11-05T12:26:01.730Z,6.10
2018-11-05T12:28:30.865Z,6.47
2018-11-05T12:30:59.546Z,6.87
2018-11-05T12:33:28.217Z,5.70
2018-11-05T12:35:56.898Z,5.40
2018-11-05T12:38:25.591Z,5.20
2018-11-05T12:40:54.374Z,5.40
2018-11-05T12:43:23.190Z,4.60
2018-11-05T12:45:52.083Z,5.70
2018-11-05T12:48:20.825Z,5.30
2018-11-05T12:50:49.539Z,5.80
2018-11-05T12:53:18.374Z,6.10
2018-11-05T12:55:47.061Z,5.93
2018-11-05T12:58:15.845Z,4.80
2018-11-05T13:00:44.567Z,4.80
2018-11-05T13:03:13.474Z,5.33
2018-11-05T13:05:42.214Z,5.10
2018-11-05T13:08:10.961Z,5.20
2018-11-05T13:10:39.717Z,5.13
2018-11-05T13:13:08.544Z,5.20
2018-11-05T13:15:37.431Z,5.17
2018-11-05T13:27:56.860Z,5.37
2018-11-05T13:30:27.620Z,4.60
2018-11-05T13:32:56.815Z,4.83
2018-11-05T13:35:25.876Z,4.90
2018-11-05T13:38:05.426Z,5.50
2018-11-05T13:40:39.818Z,5.17
2018-11-05T13:43:10.348Z,5.00
2018-11-05T13:45:40.567Z,4.20
2018-11-05T13:48:19.766Z,4.73
2018-11-05T13:50:53.266Z,5.03
2018-11-05T13:53:22.641Z,5.10
2018-11-05T13:55:52.441Z,4.57
2018-11-05T13:58:22.831Z,4.83
2018-11-05T14:00:54.383Z,5.83
2018-11-05T14:03:29.418Z,5.03
2018-11-05T14:06:01.648Z,5.80
2018-11-05T14:08:35.933Z,4.93
2018-11-05T14:11:05.781Z,4.70
2018-11-05T14:13:38.604Z,5.33
2018-11-05T14:16:10.983Z,4.90
2018-11-05T14:18:43.242Z,5.10
2018-11-05T14:21:12.448Z,6.40
2018-11-05T14:23:44.716Z,6.17
2018-11-05T14:26:27.982Z,6.00
2018-11-05T14:29:02.637Z,5.80
2018-11-05T14:31:32.269Z,7.57
2018-11-05T14:34:03.946Z,6.30
2018-11-05T14:36:36.003Z,5.53
2018-11-05T14:39:12.475Z,5.50
2018-11-05T14:41:43.256Z,6.20
2018-11-05T14:44:13.454Z,5.70
2018-11-05T14:46:46.115Z,5.30
2018-11-05T14:49:18.011Z,5.37
2018-11-05T14:51:47.708Z,5.37
2018-11-05T14:54:19.949Z,5.23
2018-11-05T14:56:53.283Z,7.37
2018-11-05T14:59:26.167Z,6.17
2018-11-05T15:02:00.591Z,5.87
2018-11-05T15:04:30.189Z,6.10
2018-11-05T15:07:04.577Z,6.50
2018-11-05T15:09:36.014Z,6.30
2018-11-05T15:12:09.049Z,6.67
2018-11-05T15:14:38.560Z,6.50
2018-11-05T15:17:10.019Z,5.53
2018-11-05T15:19:44.378Z,6.90
2018-11-05T15:22:16.486Z,7.17
2018-11-05T15:24:51.611Z,7.80
2018-11-05T15:27:26.338Z,6.10
2018-11-05T15:29:57.984Z,6.30
2018-11-05T15:35:17.494Z,6.37
2018-11-05T15:37:51.688Z,6.83
2018-11-05T15:40:23.043Z,5.97
2018-11-05T15:42:54.303Z,6.50
2018-11-05T15:45:27.905Z,5.53
2018-11-05T15:47:59.820Z,6.07
2018-11-05T15:50:31.167Z,6.67
2018-11-05T15:53:02.959Z,5.40
2018-11-05T16:03:49.117Z,6.37
2018-11-05T16:06:22.400Z,7.07
2018-11-05T16:08:53.237Z,6.47
2018-11-05T16:11:22.408Z,5.40
2018-11-05T16:14:19.264Z,6.90
2018-11-05T16:16:53.991Z,7.60
2018-11-05T16:30:31.771Z,7.13
2018-11-05T16:33:03.776Z,8.53
2018-11-05T16:35:33.077Z,7.73
2018-11-05T16:38:02.417Z,7.43
2018-11-05T16:40:31.905Z,9.00
2018-11-05T16:43:03.968Z,7.97
2018-11-05T16:45:35.216Z,7.70
2018-11-05T16:48:06.232Z,8.23
2018-11-05T16:50:35.393Z,10.03
2018-11-05T16:53:05.049Z,8.43
2018-11-05T16:55:36.314Z,7.83
2018-11-05T16:58:05.698Z,7.37
2018-11-05T17:00:36.198Z,7.37
2018-11-05T17:03:07.746Z,8.30
2018-11-05T17:05:39.275Z,9.20
2018-11-05T17:08:12.113Z,9.00
2018-11-05T17:10:41.184Z,8.40
2018-11-05T17:16:05.431Z,8.13
2018-11-05T17:18:38.180Z,8.70
2018-11-05T17:21:08.735Z,8.97
2018-11-05T17:23:37.901Z,8.60
2018-11-05T17:26:08.899Z,8.87
2018-11-05T17:28:40.297Z,9.93
2018-11-05T17:31:09.970Z,9.43
2018-11-05T17:33:39.855Z,9.50
2018-11-05T17:36:09.456Z,10.07
2018-11-05T17:38:41.050Z,11.40
2018-11-05T17:41:11.641Z,9.20
2018-11-05T17:43:40.873Z,11.30
2018-11-05T17:46:10.814Z,12.60
2018-11-05T17:48:39.864Z,17.27
2018-11-05T17:51:13.217Z,14.30
2018-11-05T17:53:42.681Z,13.00
2018-11-05T17:56:12.017Z,12.40
2018-11-05T17:58:42.087Z,12.53
2018-11-05T18:01:13.812Z,10.97
2018-11-05T18:03:45.131Z,11.60
2018-11-05T18:06:14.774Z,12.47
2018-11-05T18:08:44.350Z,11.67
2018-11-05T18:11:13.842Z,13.00
2018-11-05T18:13:43.083Z,10.30
2018-11-05T18:16:13.447Z,11.57
2018-11-05T18:18:43.724Z,12.00
2018-11-05T18:21:13.451Z,9.90
2018-11-05T18:23:43.263Z,11.37
2018-11-05T18:26:13.471Z,10.37
2018-11-05T18:28:50.572Z,10.47
2018-11-05T18:31:24.093Z,9.77
2018-11-05T18:33:54.762Z,8.87
2018-11-05T18:38:06.682Z,9.83
2018-11-05T18:40:39.123Z,8.83
2018-11-05T18:43:09.054Z,9.90
2018-11-05T18:45:43.104Z,10.97
2018-11-05T18:48:14.407Z,9.60
2018-11-05T18:50:48.245Z,8.93
2018-11-05T18:53:22.266Z,10.80
2018-11-05T18:55:54.660Z,9.53
2018-11-05T18:58:27.474Z,10.00
2018-11-05T19:00:58.242Z,9.80
2018-11-05T19:03:29.579Z,9.47
2018-11-05T19:06:08.727Z,9.57
2018-11-05T19:08:44.738Z,9.97
2018-11-05T19:11:20.184Z,9.27
2018-11-05T19:13:54.255Z,10.00
2018-11-05T19:16:32.846Z,10.53
2018-11-05T19:19:07.083Z,10.20
2018-11-05T19:21:39.434Z,10.17
2018-11-05T19:24:10.893Z,10.13
2018-11-05T19:26:41.787Z,10.80
2018-11-05T19:29:13.046Z,11.00
2018-11-05T19:31:49.177Z,10.33
2018-11-05T19:34:23.747Z,9.57
2018-11-05T19:36:57.626Z,10.53
2018-11-05T19:39:28.274Z,9.30
2018-11-05T19:42:00.293Z,10.30
2018-11-05T19:44:31.640Z,10.27
2018-11-05T19:47:03.955Z,11.70
2018-11-05T19:49:36.509Z,10.60
2018-11-05T19:52:07.131Z,12.30
2018-11-05T19:54:42.090Z,10.23
2018-11-05T19:57:13.565Z,13.93
2018-11-05T19:59:50.597Z,10.87
2018-11-05T20:02:27.590Z,10.27
2018-11-05T20:05:03.373Z,11.13
2018-11-05T20:07:38.358Z,10.77
2018-11-05T20:10:14.843Z,11.17
2018-11-05T20:15:27.264Z,11.00
2018-11-05T20:17:58.867Z,11.20
2018-11-05T20:20:32.559Z,13.33
2018-11-05T20:23:05.963Z,12.07
2018-11-05T20:25:39.518Z,10.80
2018-11-05T20:28:13.840Z,10.80
2018-11-05T20:30:48.764Z,11.10
2018-11-05T20:33:23.152Z,11.20
2018-11-05T20:41:14.288Z,9.90
2018-11-05T20:43:48.282Z,9.70
2018-11-05T20:46:25.389Z,11.77
2018-11-05T20:51:38.514Z,11.30
2018-11-05T20:54:08.597Z,10.70
2018-11-05T20:56:42.547Z,10.53
2018-11-05T20:59:12.460Z,10.77
2018-11-05T21:01:44.039Z,11.27
2018-11-05T21:04:16.637Z,12.03
2018-11-05T21:06:51.516Z,9.60
2018-11-05T21:09:23.579Z,11.77
2018-11-05T21:11:54.902Z,10.50
2018-11-05T21:14:30.428Z,11.83
2018-11-05T21:17:03.447Z,11.10
2018-11-05T21:19:36.854Z,10.97
2018-11-05T21:22:11.743Z,10.50
2018-11-05T21:24:46.247Z,10.17
2018-11-05T21:27:16.378Z,10.57
2018-11-05T21:29:50.532Z,11.70
2018-11-05T21:32:22.367Z,12.60
2018-11-05T21:34:56.115Z,10.27
2018-11-05T21:37:25.101Z,11.23
2018-11-05T21:39:56.529Z,11.00
2018-11-05T21:42:28.752Z,11.80
2018-11-05T21:45:09.998Z,11.30
2018-11-05T21:47:40.562Z,10.80
2018-11-05T21:50:12.561Z,11.50
2018-11-05T21:52:46.844Z,11.93
2018-11-05T21:55:21.247Z,11.13
2018-11-05T21:57:51.185Z,10.80
2018-11-05T22:00:26.149Z,10.03
2018-11-05T22:03:02.446Z,11.33
2018-11-05T22:05:33.897Z,13.40
2018-11-05T22:08:05.177Z,11.83
2018-11-05T22:10:35.763Z,11.10
2018-11-05T22:13:07.951Z,12.13
2018-11-05T22:15:44.368Z,12.00
2018-11-05T22:18:18.253Z,11.27
2018-11-05T22:20:47.987Z,12.40
2018-11-05T22:23:18.028Z,11.53
2018-11-05T22:25:50.640Z,11.60
2018-11-05T22:28:22.555Z,11.17
2018-11-05T22:30:53.807Z,10.53
2018-11-05T22:33:25.153Z,11.67
2018-11-05T22:35:57.071Z,13.80
2018-11-05T22:38:30.183Z,11.80
2018-11-05T22:41:02.999Z,11.60
2018-11-05T22:43:36.514Z,11.70
2018-11-05T22:46:07.008Z,11.43
2018-11-05T22:48:45.300Z,11.60
2018-11-05T22:51:19.338Z,11.07
2018-11-05T22:53:50.127Z,10.37
2018-11-05T22:56:21.299Z,12.50
2018-11-05T22:58:52.781Z,12.20
2018-11-05T23:01:28.603Z,12.33
2018-11-05T23:04:03.095Z,10.83
2018-11-05T23:06:36.264Z,11.60
2018-11-05T23:09:08.509Z,10.50
2018-11-05T23:11:38.167Z,13.03
2018-11-05T23:14:10.232Z,11.60
2018-11-05T23:16:40.226Z,10.50
2018-11-05T23:19:15.641Z,11.37
2018-11-05T23:21:49.832Z,11.10
2018-11-05T23:24:21.810Z,11.87
2018-11-05T23:26:53.491Z,11.73
2018-11-05T23:29:25.321Z,11.87
2018-11-05T23:31:58.768Z,11.57
2018-11-05T23:34:28.318Z,10.97
2018-11-05T23:37:03.884Z,10.20
2018-11-05T23:39:35.090Z,10.40
2018-11-05T23:42:07.520Z,10.10
2018-11-05T23:44:38.065Z,10.33
2018-11-05T23:47:08.762Z,10.70
2018-11-05T23:49:38.635Z,10.93
2018-11-05T23:52:09.181Z,12.37
2018-11-05T23:54:40.145Z,10.80
2018-11-05T23:57:09.274Z,11.10
2018-11-05T23:59:38.577Z,10.30
